createdAt,value
2022-07-28T00:01:52.705Z,1.70
2022-07-28T00:04:21.858Z,1.80
2022-07-28T00:06:50.109Z,1.90
2022-07-28T00:09:21.273Z,1.90
2022-07-28T00:11:50.384Z,1.70
2022-07-28T00:14:28.247Z,1.77
2022-07-28T00:16:56.992Z,2.27
2022-07-28T00:19:27.615Z,1.90
2022-07-28T00:21:56.180Z,2.27
2022-07-28T00:24:26.672Z,1.47
2022-07-28T00:26:55.472Z,1.63
2022-07-28T00:29:26.182Z,1.90
2022-07-28T00:32:14.682Z,1.63
2022-07-28T00:34:43.169Z,1.50
2022-07-28T00:37:14.583Z,2.07
2022-07-28T00:39:43.406Z,1.70
2022-07-28T00:42:12.386Z,1.87
2022-07-28T00:44:42.763Z,1.60
2022-07-28T00:47:13.049Z,1.50
2022-07-28T00:49:42.027Z,1.40
2022-07-28T00:52:15.091Z,1.60
2022-07-28T00:54:43.308Z,1.50
2022-07-28T00:57:11.565Z,1.53
2022-07-28T00:59:41.714Z,1.70
2022-07-28T01:02:13.766Z,1.80
2022-07-28T01:04:42.720Z,2.10
2022-07-28T01:07:21.217Z,1.80
2022-07-28T01:09:58.198Z,2.20
2022-07-28T01:12:38.958Z,2.03
2022-07-28T01:15:17.151Z,1.73
2022-07-28T01:17:55.247Z,1.83
2022-07-28T01:20:32.771Z,1.60
2022-07-28T01:23:35.593Z,1.57
2022-07-28T01:26:21.102Z,1.97
2022-07-28T01:29:04.708Z,2.10
2022-07-28T01:31:40.950Z,1.50
2022-07-28T01:34:14.980Z,1.60
2022-07-28T01:36:47.727Z,1.80
2022-07-28T01:39:19.122Z,1.47
2022-07-28T01:41:51.183Z,1.50
2022-07-28T01:44:25.253Z,1.57
2022-07-28T01:46:58.107Z,1.57
2022-07-28T01:49:29.327Z,1.57
2022-07-28T01:52:00.631Z,1.60
2022-07-28T01:54:32.455Z,1.50
2022-07-28T01:57:04.557Z,1.50
2022-07-28T01:59:34.676Z,1.40
2022-07-28T02:02:06.698Z,1.30
2022-07-28T02:04:37.693Z,1.80
2022-07-28T02:07:08.367Z,1.40
2022-07-28T02:09:38.257Z,1.60
2022-07-28T02:12:11.610Z,1.43
2022-07-28T02:14:40.680Z,1.50
2022-07-28T02:17:14.985Z,1.83
2022-07-28T02:19:47.360Z,1.60
2022-07-28T02:22:17.878Z,1.70
2022-07-28T02:24:47.390Z,1.87
2022-07-28T02:27:21.032Z,1.73
2022-07-28T02:29:53.006Z,1.70
2022-07-28T02:32:31.465Z,1.97
2022-07-28T02:35:10.686Z,1.83
2022-07-28T02:37:43.118Z,2.10
2022-07-28T02:40:16.004Z,1.37
2022-07-28T02:42:48.584Z,2.10
2022-07-28T02:45:22.625Z,1.70
2022-07-28T02:47:57.431Z,1.80
2022-07-28T02:50:29.121Z,1.83
2022-07-28T02:53:15.159Z,1.63
2022-07-28T02:55:48.929Z,1.97
2022-07-28T02:58:19.908Z,1.57
2022-07-28T03:00:49.558Z,1.50
2022-07-28T03:03:20.761Z,1.50
2022-07-28T03:05:50.262Z,1.33
2022-07-28T03:08:18.980Z,1.60
2022-07-28T03:10:47.446Z,1.37
2022-07-28T03:13:15.764Z,1.43
2022-07-28T03:15:46.953Z,1.20
2022-07-28T03:18:15.293Z,1.53
2022-07-28T03:20:45.385Z,1.60
2022-07-28T03:23:13.784Z,1.63
2022-07-28T03:25:48.374Z,1.20
2022-07-28T03:28:20.115Z,1.47
2022-07-28T03:30:53.910Z,1.47
2022-07-28T03:33:22.349Z,1.33
2022-07-28T03:35:54.949Z,1.60
2022-07-28T03:38:27.148Z,1.30
2022-07-28T03:40:58.928Z,1.30
2022-07-28T03:43:29.119Z,1.90
2022-07-28T03:45:57.411Z,1.57
2022-07-28T03:48:30.540Z,1.80
2022-07-28T03:51:00.611Z,1.57
2022-07-28T03:53:30.369Z,1.50
2022-07-28T03:55:59.052Z,1.60
2022-07-28T03:58:29.203Z,1.70
2022-07-28T04:00:58.811Z,2.30
2022-07-28T04:03:42.890Z,1.70
2022-07-28T04:06:15.421Z,1.70
2022-07-28T04:08:44.555Z,1.70
2022-07-28T04:11:16.565Z,1.60
2022-07-28T04:13:44.920Z,1.80
2022-07-28T04:16:13.302Z,2.07
2022-07-28T04:18:42.397Z,1.50
2022-07-28T04:21:11.160Z,1.37
2022-07-28T04:23:41.192Z,2.03
2022-07-28T04:26:10.796Z,1.70
2022-07-28T04:28:41.710Z,1.50
2022-07-28T04:31:10.391Z,1.40
2022-07-28T04:33:39.512Z,1.63
2022-07-28T04:36:08.094Z,1.70
2022-07-28T04:38:38.952Z,1.43
2022-07-28T04:41:08.866Z,1.30
2022-07-28T04:43:38.128Z,1.60
2022-07-28T04:46:06.725Z,1.47
2022-07-28T04:48:35.141Z,1.50
2022-07-28T04:51:03.605Z,1.40
2022-07-28T04:53:32.529Z,1.80
2022-07-28T04:56:00.776Z,2.00
2022-07-28T04:58:32.881Z,1.60
2022-07-28T05:01:01.391Z,1.90
2022-07-28T05:03:35.728Z,1.70
2022-07-28T05:06:05.161Z,1.77
2022-07-28T05:08:33.503Z,4.10
2022-07-28T05:11:02.114Z,3.77
2022-07-28T05:13:34.264Z,1.40
2022-07-28T05:16:03.089Z,1.70
2022-07-28T05:18:33.585Z,1.47
2022-07-28T05:21:02.226Z,1.73
2022-07-28T05:23:30.633Z,1.67
2022-07-28T05:26:07.509Z,1.60
2022-07-28T05:28:46.380Z,1.33
2022-07-28T05:31:15.393Z,1.70
2022-07-28T05:33:43.829Z,1.73
2022-07-28T05:36:13.646Z,1.40
2022-07-28T05:38:42.299Z,1.70
2022-07-28T05:41:10.693Z,2.10
2022-07-28T05:43:40.610Z,2.97
2022-07-28T05:46:09.027Z,1.90
2022-07-28T05:48:37.518Z,1.80
2022-07-28T05:51:07.255Z,1.60
2022-07-28T05:53:35.662Z,1.70
2022-07-28T05:56:04.257Z,1.70
2022-07-28T05:58:33.104Z,3.10
2022-07-28T06:01:03.662Z,2.00
2022-07-28T06:03:41.454Z,1.73
2022-07-28T06:06:16.304Z,1.63
2022-07-28T06:08:47.381Z,2.20
2022-07-28T06:11:21.911Z,1.70
2022-07-28T06:13:52.599Z,1.60
2022-07-28T06:16:24.476Z,2.07
2022-07-28T06:18:53.226Z,1.90
2022-07-28T06:21:24.625Z,1.30
2022-07-28T06:23:53.118Z,1.77
2022-07-28T06:26:23.594Z,3.07
2022-07-28T06:28:52.614Z,1.50
2022-07-28T06:31:22.491Z,1.80
2022-07-28T06:33:51.070Z,1.70
2022-07-28T06:36:19.527Z,1.80
2022-07-28T06:38:48.029Z,1.60
2022-07-28T06:41:16.589Z,1.33
2022-07-28T06:43:45.324Z,1.57
2022-07-28T06:46:18.724Z,2.03
2022-07-28T06:48:48.724Z,1.60
2022-07-28T06:51:19.915Z,1.50
2022-07-28T06:53:49.569Z,1.53
2022-07-28T06:56:20.222Z,1.80
2022-07-28T06:58:50.058Z,1.47
2022-07-28T07:01:18.426Z,1.23
2022-07-28T07:03:46.738Z,1.90
2022-07-28T07:06:17.035Z,1.87
2022-07-28T07:08:47.300Z,1.67
2022-07-28T07:11:17.624Z,1.60
2022-07-28T07:13:46.015Z,1.80
2022-07-28T07:16:15.563Z,1.80
2022-07-28T07:18:48.622Z,1.50
2022-07-28T07:21:20.331Z,1.50
2022-07-28T07:23:51.259Z,2.07
2022-07-28T07:26:19.577Z,2.10
2022-07-28T07:28:48.077Z,2.40
2022-07-28T07:31:18.745Z,2.13
2022-07-28T07:33:50.223Z,2.30
2022-07-28T07:36:22.027Z,2.00
2022-07-28T07:38:51.752Z,2.20
2022-07-28T07:41:22.030Z,2.50
2022-07-28T07:43:51.599Z,2.43
2022-07-28T07:46:23.201Z,3.13
2022-07-28T07:48:54.334Z,2.27
2022-07-28T07:51:24.755Z,2.10
2022-07-28T07:53:55.996Z,2.10
2022-07-28T07:56:27.346Z,1.53
2022-07-28T07:58:57.251Z,1.80
2022-07-28T08:01:28.130Z,1.80
2022-07-28T08:03:59.993Z,1.53
2022-07-28T08:06:31.346Z,1.70
2022-07-28T08:09:01.135Z,1.50
2022-07-28T08:11:30.010Z,1.50
2022-07-28T08:13:59.425Z,1.73
2022-07-28T08:16:28.339Z,1.10
2022-07-28T08:18:58.503Z,1.30
2022-07-28T08:21:27.183Z,0.90
2022-07-28T08:23:59.437Z,1.40
2022-07-28T08:26:29.997Z,1.10
2022-07-28T08:29:00.492Z,0.83
2022-07-28T08:31:29.449Z,0.90
2022-07-28T08:33:58.723Z,1.23
2022-07-28T08:36:27.879Z,1.00
2022-07-28T08:38:58.473Z,0.80
2022-07-28T08:41:57.915Z,0.73
2022-07-28T08:44:33.288Z,0.70
2022-07-28T08:47:08.038Z,0.70
2022-07-28T08:49:40.365Z,0.97
2022-07-28T08:52:12.464Z,0.70
2022-07-28T08:54:46.432Z,1.10
2022-07-28T08:57:18.939Z,0.80
2022-07-28T08:59:50.853Z,0.80
2022-07-28T09:02:20.839Z,1.00
2022-07-28T09:04:51.825Z,1.13
2022-07-28T09:07:20.798Z,1.27
2022-07-28T09:09:52.163Z,0.70
2022-07-28T09:12:26.747Z,1.07
2022-07-28T09:14:59.464Z,0.77
2022-07-28T09:17:28.056Z,1.20
2022-07-28T09:19:57.812Z,1.30
2022-07-28T09:22:27.232Z,1.40
2022-07-28T09:24:57.420Z,0.87
2022-07-28T09:27:28.639Z,1.00
2022-07-28T09:30:23.512Z,1.00
2022-07-28T09:33:44.141Z,1.00
2022-07-28T09:36:23.107Z,1.63
2022-07-28T09:39:12.070Z,1.20
2022-07-28T09:48:13.490Z,1.10
2022-07-28T09:50:58.843Z,5.17
2022-07-28T09:53:43.201Z,1.60
2022-07-28T09:56:13.407Z,1.37
2022-07-28T09:58:43.888Z,0.93
2022-07-28T10:01:16.866Z,1.10
2022-07-28T10:03:52.175Z,0.90
2022-07-28T10:06:31.448Z,1.30
2022-07-28T10:09:02.777Z,1.10
2022-07-28T10:11:41.332Z,1.30
2022-07-28T10:14:14.052Z,1.13
2022-07-28T10:17:06.507Z,1.63
2022-07-28T10:19:37.166Z,1.27
2022-07-28T10:25:14.578Z,1.43
2022-07-28T10:27:47.143Z,1.50
2022-07-28T10:30:16.898Z,1.20
2022-07-28T10:32:51.904Z,1.53
2022-07-28T10:35:21.201Z,1.37
2022-07-28T10:37:55.815Z,1.50
2022-07-28T10:40:30.048Z,1.27
2022-07-28T10:42:59.862Z,1.30
2022-07-28T10:45:47.964Z,1.20
2022-07-28T10:48:23.667Z,1.30
2022-07-28T10:50:56.985Z,1.30
2022-07-28T10:53:37.305Z,1.30
2022-07-28T10:56:18.741Z,1.70
2022-07-28T10:59:02.808Z,1.33
2022-07-28T11:01:53.143Z,1.37
2022-07-28T11:05:01.818Z,1.50
2022-07-28T11:07:41.141Z,1.33
2022-07-28T11:10:21.689Z,1.30
2022-07-28T11:13:01.600Z,1.50
2022-07-28T11:15:39.078Z,1.20
2022-07-28T11:18:11.198Z,1.20
2022-07-28T11:21:09.554Z,1.43
2022-07-28T11:24:10.566Z,1.37
2022-07-28T11:27:02.348Z,1.40
2022-07-28T11:29:47.996Z,1.57
2022-07-28T11:32:23.520Z,1.27
2022-07-28T11:35:36.141Z,1.50
2022-07-28T11:38:15.944Z,1.50
2022-07-28T11:40:47.645Z,1.50
2022-07-28T11:43:45.729Z,1.20
2022-07-28T11:46:40.004Z,1.40
2022-07-28T11:49:26.282Z,1.80
2022-07-28T11:52:21.233Z,1.20
2022-07-28T11:54:54.257Z,1.33
2022-07-28T11:57:26.256Z,1.77
2022-07-28T12:00:13.317Z,1.30
2022-07-28T12:02:45.892Z,1.50
2022-07-28T12:05:15.775Z,1.10
2022-07-28T12:07:48.195Z,1.30
2022-07-28T12:10:53.833Z,1.17
2022-07-28T12:13:29.536Z,1.37
2022-07-28T12:16:12.730Z,1.23
2022-07-28T12:18:43.115Z,1.83
2022-07-28T12:21:12.394Z,1.53
2022-07-28T12:23:46.241Z,1.33
2022-07-28T12:26:40.688Z,1.57
2022-07-28T12:29:15.995Z,1.90
2022-07-28T12:31:59.526Z,1.30
2022-07-28T12:34:30.709Z,1.30
2022-07-28T12:37:02.249Z,1.60
2022-07-28T12:39:32.620Z,1.50
2022-07-28T12:42:04.883Z,1.10
2022-07-28T12:44:38.142Z,1.30
2022-07-28T12:47:09.880Z,1.40
2022-07-28T12:49:57.834Z,1.10
2022-07-28T12:52:29.311Z,1.00
2022-07-28T12:54:59.528Z,1.20
2022-07-28T12:57:51.405Z,1.00
2022-07-28T13:00:27.736Z,1.10
2022-07-28T13:02:58.373Z,1.63
2022-07-28T13:05:34.965Z,1.37
2022-07-28T13:08:04.971Z,1.57
2022-07-28T13:10:34.956Z,1.37
2022-07-28T13:13:09.967Z,1.10
2022-07-28T13:15:40.294Z,1.40
2022-07-28T13:18:08.996Z,1.30
2022-07-28T13:20:52.335Z,1.20
2022-07-28T13:23:24.288Z,1.10
2022-07-28T13:26:00.798Z,1.65
2022-07-28T13:28:30.659Z,1.20
2022-07-28T13:30:59.892Z,1.48
2022-07-28T13:33:29.044Z,1.30
2022-07-28T13:36:08.553Z,1.30
2022-07-28T13:38:38.563Z,1.95
2022-07-28T13:41:08.557Z,1.30
2022-07-28T13:43:50.725Z,1.27
2022-07-28T13:46:20.567Z,1.52
2022-07-28T13:48:58.160Z,1.40
2022-07-28T13:51:30.517Z,1.00
2022-07-28T13:54:03.254Z,1.00
2022-07-28T13:56:36.784Z,1.00
2022-07-28T13:59:07.274Z,1.20
2022-07-28T14:01:37.724Z,1.15
2022-07-28T14:04:06.239Z,1.23
2022-07-28T14:06:51.003Z,1.00
2022-07-28T14:09:21.348Z,1.40
2022-07-28T14:11:53.619Z,1.40
2022-07-28T14:14:25.462Z,1.20
2022-07-28T14:16:55.565Z,1.17
2022-07-28T14:19:38.230Z,1.30
2022-07-28T14:25:06.359Z,0.80
2022-07-28T14:27:43.512Z,1.00
2022-07-28T14:30:17.387Z,0.90
2022-07-28T14:32:46.646Z,1.13
2022-07-28T14:38:49.859Z,1.10
2022-07-28T14:40:50.934Z,0.80
2022-07-28T14:43:22.297Z,1.20
2022-07-28T14:46:14.853Z,1.10
2022-07-28T14:48:45.007Z,1.20
2022-07-28T14:51:15.146Z,0.73
2022-07-28T14:53:51.584Z,1.10
2022-07-28T14:56:21.284Z,1.15
2022-07-28T14:58:50.319Z,1.27
2022-07-28T15:01:18.646Z,1.10
2022-07-28T15:03:49.619Z,1.23
2022-07-28T15:06:30.951Z,1.27
2022-07-28T15:09:03.193Z,1.15
2022-07-28T15:11:35.661Z,1.40
2022-07-28T15:14:04.616Z,1.23
2022-07-28T15:16:33.182Z,1.33
2022-07-28T15:19:01.951Z,1.10
2022-07-28T15:21:35.910Z,1.38
2022-07-28T15:24:08.690Z,1.35
2022-07-28T15:26:37.605Z,0.90
2022-07-28T15:29:09.242Z,0.98
2022-07-28T15:31:37.989Z,1.27
2022-07-28T15:34:08.603Z,1.70
2022-07-28T15:36:38.826Z,1.77
2022-07-28T15:39:14.604Z,1.65
2022-07-28T15:41:43.706Z,1.35
2022-07-28T15:44:25.830Z,1.05
2022-07-28T15:46:55.199Z,1.60
2022-07-28T15:49:25.500Z,2.58
2022-07-28T15:52:01.015Z,1.38
2022-07-28T15:54:32.825Z,1.33
2022-07-28T15:57:01.032Z,1.20
2022-07-28T15:59:48.702Z,1.10
2022-07-28T16:02:19.027Z,1.42
2022-07-28T16:04:53.480Z,1.42
2022-07-28T16:07:25.202Z,1.33
2022-07-28T16:10:00.471Z,1.70
2022-07-28T16:12:33.562Z,1.58
2022-07-28T16:15:04.259Z,1.27
2022-07-28T16:17:38.835Z,1.40
2022-07-28T16:20:10.435Z,1.80
2022-07-28T16:22:43.206Z,1.58
2022-07-28T16:25:16.941Z,1.58
2022-07-28T16:27:47.878Z,1.88
2022-07-28T16:30:17.343Z,1.67
2022-07-28T16:32:45.858Z,1.70
2022-07-28T16:35:15.901Z,1.65
2022-07-28T16:37:44.234Z,2.17
2022-07-28T16:40:23.041Z,1.75
2022-07-28T16:42:53.437Z,2.40
2022-07-28T16:45:22.020Z,2.08
2022-07-28T16:47:50.471Z,2.25
2022-07-28T16:50:19.093Z,2.50
2022-07-28T16:52:49.789Z,2.13
2022-07-28T16:55:23.409Z,1.80
2022-07-28T16:57:53.527Z,1.88
2022-07-28T17:00:25.749Z,2.17
2022-07-28T17:02:54.220Z,1.88
2022-07-28T17:05:22.974Z,1.60
2022-07-28T17:07:51.409Z,1.63
2022-07-28T17:10:27.164Z,1.77
2022-07-28T17:12:56.602Z,2.10
2022-07-28T17:15:24.968Z,2.25
2022-07-28T17:17:53.504Z,2.35
2022-07-28T17:20:22.180Z,1.92
2022-07-28T17:22:50.458Z,1.85
2022-07-28T17:28:08.807Z,2.25
2022-07-28T17:30:37.576Z,2.13
2022-07-28T17:33:08.755Z,2.60
2022-07-28T17:38:29.608Z,1.80
2022-07-28T17:41:04.306Z,1.70
2022-07-28T17:43:35.050Z,2.17
2022-07-28T17:46:08.438Z,1.77
2022-07-28T17:48:39.340Z,1.80
2022-07-28T17:51:07.863Z,1.93
2022-07-28T17:53:38.965Z,2.20
2022-07-28T17:56:08.884Z,1.80
2022-07-28T17:58:39.839Z,2.20
2022-07-28T18:01:12.335Z,2.20
2022-07-28T18:03:56.976Z,2.10
2022-07-28T18:06:30.935Z,2.50
2022-07-28T18:09:06.057Z,2.33
2022-07-28T18:11:37.723Z,2.37
2022-07-28T18:14:26.690Z,2.90
2022-07-28T18:16:57.260Z,2.67
2022-07-28T18:19:25.622Z,2.25
2022-07-28T18:21:53.886Z,2.50
2022-07-28T18:24:23.749Z,2.30
2022-07-28T18:26:55.570Z,2.35
2022-07-28T18:29:26.446Z,2.10
2022-07-28T18:32:09.736Z,2.45
2022-07-28T18:34:39.749Z,2.20
2022-07-28T18:37:08.604Z,2.10
2022-07-28T18:39:38.226Z,2.08
2022-07-28T18:42:07.351Z,2.47
2022-07-28T18:44:37.382Z,2.40
2022-07-28T18:47:07.146Z,2.50
2022-07-28T18:49:37.927Z,2.70
2022-07-28T18:52:07.648Z,2.65
2022-07-28T18:54:42.278Z,2.45
2022-07-28T18:57:15.748Z,2.83
2022-07-28T18:59:51.652Z,3.00
2022-07-28T19:02:20.549Z,3.07
2022-07-28T19:04:51.677Z,3.00
2022-07-28T19:07:20.198Z,3.00
2022-07-28T19:09:48.490Z,3.83
2022-07-28T19:12:18.225Z,3.53
2022-07-28T19:14:49.266Z,3.07
2022-07-28T19:17:26.049Z,2.80
2022-07-28T19:19:56.316Z,2.97
2022-07-28T19:22:27.122Z,2.60
2022-07-28T19:24:55.748Z,3.30
2022-07-28T19:27:24.401Z,2.80
2022-07-28T19:29:54.907Z,3.10
2022-07-28T19:32:24.819Z,2.77
2022-07-28T19:34:53.187Z,3.33
2022-07-28T19:37:23.228Z,3.27
2022-07-28T19:39:51.530Z,3.00
2022-07-28T19:42:19.828Z,3.00
2022-07-28T19:44:51.023Z,3.33
2022-07-28T19:47:25.623Z,3.10
2022-07-28T19:49:53.768Z,2.97
2022-07-28T19:52:39.975Z,3.30
2022-07-28T19:55:21.916Z,3.87
2022-07-28T19:57:55.130Z,6.23
2022-07-28T20:00:24.020Z,4.23
2022-07-28T20:02:53.962Z,4.10
2022-07-28T20:05:22.521Z,3.33
2022-07-28T20:07:51.411Z,4.00
2022-07-28T20:10:20.466Z,4.00
2022-07-28T20:12:48.783Z,4.30
2022-07-28T20:15:17.306Z,4.07
2022-07-28T20:17:46.123Z,4.33
2022-07-28T20:20:16.492Z,4.40
2022-07-28T20:22:45.795Z,4.20
2022-07-28T20:25:14.959Z,5.00
2022-07-28T20:27:44.444Z,3.57
2022-07-28T20:30:14.638Z,3.83
2022-07-28T20:32:44.334Z,4.67
2022-07-28T20:35:13.107Z,4.00
2022-07-28T20:37:43.211Z,4.40
2022-07-28T20:40:12.515Z,4.90
2022-07-28T20:42:41.017Z,4.50
2022-07-28T20:45:10.171Z,4.90
2022-07-28T20:47:39.235Z,4.60
2022-07-28T20:50:08.613Z,4.30
2022-07-28T20:52:36.930Z,5.17
2022-07-28T20:55:07.881Z,5.30
2022-07-28T20:57:36.914Z,5.17
2022-07-28T21:00:09.463Z,4.17
2022-07-28T21:02:39.149Z,4.23
2022-07-28T21:05:08.497Z,4.10
2022-07-28T21:08:04.778Z,4.33
2022-07-28T21:10:36.557Z,4.33
2022-07-28T21:13:04.995Z,5.43
2022-07-28T21:15:40.239Z,4.43
2022-07-28T21:18:09.844Z,4.10
2022-07-28T21:20:39.987Z,3.80
2022-07-28T21:23:14.540Z,3.10
2022-07-28T21:25:47.518Z,4.00
2022-07-28T21:28:30.006Z,3.50
2022-07-28T21:31:01.596Z,3.37
2022-07-28T21:33:30.792Z,3.00
2022-07-28T21:35:59.696Z,3.80
2022-07-28T21:38:29.628Z,3.60
2022-07-28T21:43:47.325Z,3.57
2022-07-28T21:46:19.061Z,3.50
2022-07-28T21:48:48.201Z,3.13
2022-07-28T21:51:26.325Z,3.00
2022-07-28T21:53:56.289Z,3.33
2022-07-28T21:56:27.519Z,2.80
2022-07-28T21:58:56.154Z,3.00
2022-07-28T22:01:27.052Z,3.03
2022-07-28T22:03:56.378Z,2.97
2022-07-28T22:06:25.194Z,3.07
2022-07-28T22:08:54.918Z,3.40
2022-07-28T22:11:23.695Z,3.97
2022-07-28T22:13:54.847Z,3.37
2022-07-28T22:16:23.205Z,3.90
2022-07-28T22:18:51.979Z,2.90
2022-07-28T22:21:21.332Z,3.50
2022-07-28T22:23:52.296Z,3.63
2022-07-28T22:26:20.824Z,3.70
2022-07-28T22:28:49.101Z,3.27
2022-07-28T22:31:20.334Z,3.27
2022-07-28T22:33:48.787Z,3.20
2022-07-28T22:36:17.619Z,3.50
2022-07-28T22:38:46.530Z,3.50
2022-07-28T22:41:15.032Z,3.40
2022-07-28T22:43:44.562Z,3.20
2022-07-28T22:46:15.228Z,3.20
2022-07-28T22:48:48.659Z,3.63
2022-07-28T22:51:17.929Z,3.30
2022-07-28T22:53:47.911Z,4.20
2022-07-28T22:56:26.303Z,4.00
2022-07-28T22:59:04.045Z,4.20
2022-07-28T23:01:32.693Z,3.50
2022-07-28T23:04:04.176Z,4.00
2022-07-28T23:06:36.669Z,3.67
2022-07-28T23:09:05.597Z,4.10
2022-07-28T23:11:34.258Z,4.20
2022-07-28T23:14:02.622Z,3.70
2022-07-28T23:16:31.726Z,4.17
2022-07-28T23:19:00.843Z,4.10
2022-07-28T23:21:30.816Z,4.00
2022-07-28T23:23:59.548Z,4.50
2022-07-28T23:26:28.100Z,4.63
2022-07-28T23:28:57.089Z,3.97
2022-07-28T23:31:25.815Z,4.00
2022-07-28T23:33:57.530Z,4.23
2022-07-28T23:36:27.867Z,3.97
2022-07-28T23:39:00.467Z,4.53
2022-07-28T23:41:29.034Z,4.30
2022-07-28T23:43:58.224Z,4.10
2022-07-28T23:46:27.078Z,3.90
2022-07-28T23:48:55.662Z,3.37
2022-07-28T23:51:41.140Z,3.20
2022-07-28T23:54:14.546Z,3.70
2022-07-28T23:56:43.486Z,3.87
2022-07-28T23:59:14.295Z,3.60
